Stansted, United Kingdom

5:10 PM BST on October 25, 2014 (GMT +0100)
Stansted | Change Station
CLOSE
Current Station
Airport
Location: Stansted,
Elevation: 348 ft
Nearby Weather Stations

Elev 348 ft 51.88 °N, 0.22 °E | Updated 20 minutes ago

Partly Cloudy
Partly Cloudy
55 °F
Feels Like 55 °F
N
12
Wind Variable Wind from SW

Today
High -- | Low -- °F
--% Chance of Precip.
Yesterday
High -- | Low -- °F
Precip. -- in
7:40 AM 5:44 PM
Waxing Crescent, 3% visible
Pressure 30.06 in
Visibility 6.2 miles
Clouds Few 3600 ft
Dew Point 46 °F
Humidity 72%
Rainfall 0.00 in
Snow Depth Not available.
UV 0 out of 12
Pollen Not available.
Air Quality Not available.
Flu Activity Not available.
METAR EGSS 251550Z 23010KT 9999 FEW036 13/08 Q1018

More Conditions Fewer Conditions

Pressure 30.06 in
Visibility 6.2 miles
Clouds Few 3600 ft
Dew Point 46 °F
Humidity 72%
Rainfall 0.00 in
Snow Depth Not available.
UV 0 out of 12
Pollen Not available.
Air Quality Not available.
Flu Activity Not available.
METAR EGSS 251550Z 23010KT 9999 FEW036 13/08 Q1018

More Conditions Fewer Conditions

10-Day Weather Forecast

Almanac

Astronomy

Oct. 25, 2014 Rise Set
Actual Time 7:40 AM BST 5:44 PM BST
Civil Twilight 7:06 AM BST 6:19 PM BST
Nautical Twilight 6:26 AM BST 6:58 PM BST
Astronomical Twilight 5:47 AM BST 7:37 PM BST
Moon 9:13 AM BST 6:46 PM BST
Length of Visible Light 11h 13m
Length of Day
10h 03m
Tomorrow will be 3m 46s shorter.
Waxing Crescent, 3% of the Moon is Illuminated
Today
Waxing Crescent
Oct 30
First Quarter
Nov 6
Full
Nov 14
Last Quarter
Nov 22
New

Today's Extremes

Country Highs Country Lows

Community

WunderPhotos

Upload Photos

1,764,887 photos uploaded!

Nearby

Snow Depth

Not available.

Earthquake Activity

City Distance Mag. Time & Date
No recent earthquake activity has been reported nearby.
Minimum magnitude displayed is 2.5.

Coastal Water Temperatures

Place Temperature
No Stations Reporting

Nearby Weather Stations